Time;durP1;ratioP1;P1;durP2;ratioP2;P2;SDS_P1;SDS_P2;PMS_P1;PMS_P2;Temp;Humidity;BMP_temperature;BMP_pressure;BME280_temperature;BME280_humidity;BME280_pressure;Samples;Min_cycle;Max_cycle;Signal;HPM_P1;HPM_P2
2022/10/10 00:01:30;;;;;;;4.50;1.90;;;;;;;10.12;75.02;101805.41;6190771;28;20225;-72
2022/10/10 00:04:52;;;;;;;2.33;2.03;;;;;;;10.28;74.55;101800.66;6193943;28;20249;-72
2022/10/10 00:08:13;;;;;;;2.30;1.70;;;;;;;10.43;73.21;101788.72;6168152;28;20238;-72
2022/10/10 00:11:35;;;;;;;1.60;1.50;;;;;;;10.30;73.65;101782.53;6170387;28;20277;-72
2022/10/10 00:14:56;;;;;;;1.83;1.33;;;;;;;10.35;73.87;101781.22;6172363;28;20248;-71
2022/10/10 00:18:18;;;;;;;1.60;1.07;;;;;;;10.33;72.98;101780.47;6204133;28;20244;-71
2022/10/10 00:21:39;;;;;;;2.03;1.33;;;;;;;10.08;74.29;101769.72;6204482;28;20229;-72
2022/10/10 00:25:00;;;;;;;1.37;1.27;;;;;;;9.93;74.42;101767.28;6204445;28;20226;-72
2022/10/10 00:28:21;;;;;;;4.97;1.90;;;;;;;10.06;74.53;101760.03;6201735;28;20316;-72
2022/10/10 00:31:42;;;;;;;2.17;1.80;;;;;;;10.07;74.37;101761.75;6199568;28;20229;-72
2022/10/10 00:35:05;;;;;;;2.80;1.30;;;;;;;9.99;74.51;101754.22;6189256;28;20547;-72
2022/10/10 00:38:26;;;;;;;2.47;1.27;;;;;;;10.06;74.29;101752.81;6190983;28;21861;-72
2022/10/10 00:41:47;;;;;;;2.00;1.17;;;;;;;9.98;74.42;101751.63;6195038;28;20221;-73
2022/10/10 00:45:25;;;;;;;3.10;1.40;;;;;;;10.14;74.16;101736.97;6196986;28;20249;-72
2022/10/10 00:48:46;;;;;;;0.97;0.97;;;;;;;10.00;74.20;101744.31;6177029;28;20598;-71
2022/10/10 00:52:10;;;;;;;3.20;1.23;;;;;;;9.95;74.61;101733.03;6196000;28;20523;-72
2022/10/10 00:55:32;;;;;;;1.10;1.10;;;;;;;9.85;75.03;101734.63;6200384;28;20315;-71
2022/10/10 00:58:56;;;;;;;1.30;1.13;;;;;;;9.91;74.75;101729.66;6193270;28;20244;-72
2022/10/10 01:02:17;;;;;;;3.40;1.53;;;;;;;9.79;75.38;101727.88;6186938;28;20488;-71
2022/10/10 01:05:40;;;;;;;2.67;2.07;;;;;;;9.70;75.85;101728.50;6202135;28;20229;-71
2022/10/10 01:09:02;;;;;;;3.80;1.60;;;;;;;9.61;75.88;101729.19;6200305;28;20229;-71
2022/10/10 01:12:32;;;;;;;4.30;2.23;;;;;;;9.59;76.13;101723.06;6201468;28;20234;-71
2022/10/10 01:16:00;;;;;;;2.03;0.90;;;;;;;9.63;76.18;101714.66;6197270;28;20562;-72
2022/10/10 01:19:43;;;;;;;1.90;1.07;;;;;;;9.76;75.82;101706.56;6195734;28;20233;-72
2022/10/10 01:23:24;;;;;;;2.50;2.30;;;;;;;9.61;76.08;101713.03;6204154;28;20253;-71
2022/10/10 01:27:16;;;;;;;2.43;1.40;;;;;;;9.56;76.07;101702.59;6193591;28;20658;-71
2022/10/10 01:30:41;;;;;;;1.47;1.30;;;;;;;9.47;76.70;101699.72;6192293;28;20240;-72
2022/10/10 01:34:08;;;;;;;1.20;1.10;;;;;;;9.50;76.36;101699.47;6199431;28;21048;-72
2022/10/10 01:37:39;;;;;;;2.63;1.50;;;;;;;9.33;77.20;101695.28;6194083;28;20232;-72
2022/10/10 01:41:06;;;;;;;1.33;1.23;;;;;;;9.43;76.62;101690.97;6198574;28;20234;-71
2022/10/10 01:44:27;;;;;;;2.70;1.53;;;;;;;9.53;76.27;101680.44;6203914;28;20499;-71
2022/10/10 01:47:50;;;;;;;1.83;1.20;;;;;;;9.62;75.85;101683.31;6192123;28;20228;-71
2022/10/10 01:51:23;;;;;;;1.50;1.17;;;;;;;9.60;75.97;101677.19;6196223;28;20233;-70
2022/10/10 01:54:52;;;;;;;2.50;1.50;;;;;;;9.36;76.81;101678.94;6195913;28;20324;-71
2022/10/10 01:58:28;;;;;;;3.07;1.20;;;;;;;9.26;77.55;101682.38;6188950;28;20791;-71
2022/10/10 02:01:54;;;;;;;2.23;1.50;;;;;;;9.34;77.15;101670.13;6188349;28;20812;-71
2022/10/10 02:05:24;;;;;;;2.80;1.00;;;;;;;9.25;77.16;101678.84;6197925;28;20229;-71
2022/10/10 02:08:49;;;;;;;5.60;1.53;;;;;;;9.16;77.82;101674.09;6199366;28;20236;-71
2022/10/10 02:12:12;;;;;;;2.03;1.60;;;;;;;9.07;78.38;101666.69;6203356;28;20225;-71
2022/10/10 02:15:38;;;;;;;1.60;1.50;;;;;;;9.35;76.84;101661.06;6203169;28;20252;-72
2022/10/10 02:18:59;;;;;;;1.40;1.30;;;;;;;9.32;76.52;101653.22;6203391;28;20253;-72
2022/10/10 02:22:24;;;;;;;2.63;1.30;;;;;;;9.28;76.85;101658.94;6204410;28;20229;-72
2022/10/10 02:25:51;;;;;;;1.07;1.03;;;;;;;8.95;78.58;101655.91;6203175;28;22402;-72
2022/10/10 02:29:18;;;;;;;7.00;1.73;;;;;;;9.10;78.29;101646.75;6198391;28;20389;-72
2022/10/10 02:32:42;;;;;;;2.20;1.10;;;;;;;8.97;78.25;101652.13;6197681;28;20230;-71
2022/10/10 02:36:04;;;;;;;3.13;1.83;;;;;;;9.05;78.40;101648.94;6191362;28;20228;-72
2022/10/10 02:39:30;;;;;;;2.73;1.90;;;;;;;8.86;78.41;101646.66;6198463;28;20265;-71
2022/10/10 02:42:52;;;;;;;1.17;1.17;;;;;;;8.94;78.70;101646.13;6200077;28;20599;-72
2022/10/10 02:46:14;;;;;;;2.70;2.50;;;;;;;8.79;79.38;101634.59;6199388;28;20332;-72
2022/10/10 02:49:35;;;;;;;2.70;1.70;;;;;;;8.98;78.11;101628.78;6204695;28;20619;-72
2022/10/10 02:52:57;;;;;;;1.63;1.53;;;;;;;8.90;78.36;101620.41;6200082;28;20229;-72
2022/10/10 02:56:19;;;;;;;2.33;1.60;;;;;;;8.90;78.36;101620.41;6200656;28;20226;-72
2022/10/10 02:59:40;;;;;;;3.30;1.70;;;;;;;8.88;78.17;101625.91;6199878;28;20512;-72
2022/10/10 03:03:01;;;;;;;4.13;1.77;;;;;;;8.70;79.14;101611.03;6201273;28;20249;-72
2022/10/10 03:06:22;;;;;;;2.27;2.17;;;;;;;8.72;78.75;101606.41;6179626;28;20302;-72
2022/10/10 03:09:42;;;;;;;2.03;1.83;;;;;;;8.57;79.56;101599.44;6176103;28;20264;-71
2022/10/10 03:13:04;;;;;;;0.90;0.90;;;;;;;8.61;79.92;101600.94;6191569;28;20657;-73
2022/10/10 03:16:25;;;;;;;1.87;1.23;;;;;;;8.45;80.87;101594.91;6201612;28;20495;-72
2022/10/10 03:19:46;;;;;;;3.63;1.80;;;;;;;8.29;80.84;101594.22;6206844;28;20237;-71
2022/10/10 03:23:07;;;;;;;4.83;1.30;;;;;;;8.41;80.40;101585.31;6203133;28;20237;-72
2022/10/10 03:26:28;;;;;;;2.93;2.67;;;;;;;8.40;80.87;101586.28;6201268;28;20707;-72
2022/10/10 03:29:50;;;;;;;1.90;1.73;;;;;;;8.49;80.50;101589.19;6205972;28;20236;-72
2022/10/10 03:33:11;;;;;;;2.10;1.60;;;;;;;8.27;80.72;101580.88;6207170;28;20643;-71
2022/10/10 03:36:32;;;;;;;2.30;1.43;;;;;;;8.57;80.22;101576.09;6194402;28;20237;-71
2022/10/10 03:39:53;;;;;;;8.90;2.80;;;;;;;8.37;80.43;101578.41;6205572;28;20348;-72
2022/10/10 03:43:14;;;;;;;3.73;1.40;;;;;;;8.38;80.69;101575.66;6203495;28;20261;-72
2022/10/10 03:46:37;;;;;;;1.67;1.57;;;;;;;8.41;80.12;101574.56;6193591;28;20245;-72
2022/10/10 03:49:58;;;;;;;5.17;1.70;;;;;;;8.35;80.84;101574.97;6192221;28;20241;-72
2022/10/10 03:53:19;;;;;;;2.00;1.90;;;;;;;8.47;79.81;101569.63;6203886;28;20229;-71
2022/10/10 03:56:40;;;;;;;3.90;1.83;;;;;;;8.56;79.88;101570.81;6209964;28;20229;-72
2022/10/10 04:00:02;;;;;;;2.37;1.87;;;;;;;8.52;79.73;101567.50;6193923;28;20671;-72
2022/10/10 04:03:27;;;;;;;4.17;2.10;;;;;;;8.28;80.40;101561.09;6199150;28;20224;-71
2022/10/10 04:06:48;;;;;;;2.00;1.90;;;;;;;8.26;81.27;101560.34;6199221;28;20229;-72
2022/10/10 04:10:09;;;;;;;2.27;2.07;;;;;;;8.18;81.46;101557.28;6198244;28;21940;-71
2022/10/10 04:13:30;;;;;;;3.67;2.10;;;;;;;8.31;80.92;101554.66;6194250;28;20229;-71
2022/10/10 04:16:51;;;;;;;2.63;1.80;;;;;;;8.25;81.28;101552.38;6194194;28;20233;-72
2022/10/10 04:20:14;;;;;;;2.47;1.73;;;;;;;8.17;81.43;101552.03;6196982;28;20244;-72
2022/10/10 04:23:34;;;;;;;3.87;1.70;;;;;;;7.97;82.08;101540.81;6197699;28;20233;-72
2022/10/10 04:26:56;;;;;;;2.60;2.20;;;;;;;8.25;81.13;101542.53;6203145;28;20340;-73
2022/10/10 04:30:18;;;;;;;2.53;1.77;;;;;;;8.12;81.89;101540.75;6192932;28;20617;-72
2022/10/10 04:33:39;;;;;;;3.87;1.90;;;;;;;8.18;81.16;101535.81;6192678;28;20338;-72
2022/10/10 04:37:01;;;;;;;3.77;2.50;;;;;;;8.05;81.74;101533.09;6193432;28;20311;-72
2022/10/10 04:40:22;;;;;;;1.63;1.53;;;;;;;8.11;82.07;101525.59;6194218;28;20225;-71
2022/10/10 04:43:43;;;;;;;2.33;1.83;;;;;;;8.31;81.48;101520.63;6197946;28;20233;-72
2022/10/10 04:47:04;;;;;;;3.23;2.00;;;;;;;8.04;80.87;101515.28;6187789;28;20517;-72
2022/10/10 04:50:25;;;;;;;2.37;1.60;;;;;;;7.96;82.50;101524.81;6192262;28;20556;-72
2022/10/10 04:53:48;;;;;;;1.77;1.50;;;;;;;7.86;82.97;101519.19;6206830;28;20232;-71
2022/10/10 04:57:09;;;;;;;3.63;2.37;;;;;;;8.05;81.85;101513.47;6196337;28;20241;-72
2022/10/10 05:00:29;;;;;;;3.43;2.13;;;;;;;8.03;81.43;101507.34;6181159;28;20551;-72
2022/10/10 05:03:50;;;;;;;4.60;2.30;;;;;;;7.98;81.72;101507.66;6226492;28;20217;-72
2022/10/10 05:07:11;;;;;;;1.80;1.70;;;;;;;7.68;82.29;101503.47;6208285;28;20229;-72
2022/10/10 05:10:37;;;;;;;3.07;1.83;;;;;;;7.83;82.48;101505.13;6189175;28;20520;-72
2022/10/10 05:13:58;;;;;;;2.17;1.80;;;;;;;7.78;81.95;101504.59;6190047;28;20237;-73
2022/10/10 05:17:19;;;;;;;5.63;2.37;;;;;;;7.69;82.19;101497.16;6200692;28;20229;-71
2022/10/10 05:20:42;;;;;;;2.50;2.30;;;;;;;7.71;82.25;101487.19;6191688;28;20509;-72
2022/10/10 05:24:04;;;;;;;3.90;2.43;;;;;;;7.54;83.48;101492.81;6204010;28;20522;-72
2022/10/10 05:27:27;;;;;;;3.30;1.77;;;;;;;7.63;83.13;101494.88;6191321;28;20606;-71
2022/10/10 05:30:49;;;;;;;6.63;2.03;;;;;;;7.52;83.67;101500.09;6165093;28;20772;-71
2022/10/10 05:34:12;;;;;;;4.37;2.07;;;;;;;7.57;83.10;101484.56;6173892;28;20242;-72
2022/10/10 05:37:33;;;;;;;3.83;2.03;;;;;;;7.70;82.74;101488.13;6176724;28;20506;-72
2022/10/10 05:40:55;;;;;;;1.53;1.43;;;;;;;7.53;83.63;101493.78;6171588;28;20233;-72
2022/10/10 05:44:17;;;;;;;5.60;1.87;;;;;;;7.52;83.14;101484.88;6178127;28;20267;-71
2022/10/10 05:47:38;;;;;;;3.43;2.83;;;;;;;7.57;83.48;101481.88;6176210;28;20241;-73
2022/10/10 05:51:00;;;;;;;6.27;4.10;;;;;;;7.34;83.98;101479.84;6172430;28;20237;-71
2022/10/10 05:54:21;;;;;;;2.67;2.40;;;;;;;7.61;83.75;101478.03;6202248;28;20313;-72
2022/10/10 05:57:42;;;;;;;2.67;1.83;;;;;;;7.41;83.58;101481.16;6196452;28;20339;-72
2022/10/10 06:01:06;;;;;;;3.10;2.00;;;;;;;7.41;83.35;101481.16;6192247;28;20229;-72
2022/10/10 06:04:27;;;;;;;2.60;2.10;;;;;;;7.41;83.76;101470.44;6183167;28;20237;-72
2022/10/10 06:07:48;;;;;;;3.00;2.73;;;;;;;7.43;83.78;101474.72;6192515;28;20495;-71
2022/10/10 06:11:09;;;;;;;3.57;3.10;;;;;;;7.48;83.04;101472.63;6202312;28;20490;-73
2022/10/10 06:14:31;;;;;;;5.03;1.90;;;;;;;7.46;83.88;101468.31;6197101;28;20643;-72
2022/10/10 06:17:53;;;;;;;3.07;2.20;;;;;;;7.49;84.19;101468.13;6198460;28;20229;-72
2022/10/10 06:21:14;;;;;;;14.63;2.10;;;;;;;7.62;83.86;101469.88;6195142;28;20236;-71
2022/10/10 06:24:35;;;;;;;3.00;2.50;;;;;;;7.84;82.62;101464.75;6196168;28;20237;-72
2022/10/10 06:27:56;;;;;;;6.10;2.80;;;;;;;7.67;82.66;101456.16;6191760;28;20245;-72
2022/10/10 06:31:17;;;;;;;2.20;2.00;;;;;;;7.71;82.93;101463.03;6186240;28;20229;-73
2022/10/10 06:34:39;;;;;;;3.37;2.30;;;;;;;7.76;83.04;101453.69;6187722;28;20641;-72
2022/10/10 06:38:00;;;;;;;5.30;2.97;;;;;;;7.84;82.97;101462.06;6196702;28;20233;-72
2022/10/10 06:41:21;;;;;;;4.17;2.20;;;;;;;8.01;82.24;101459.09;6188326;28;20492;-72
2022/10/10 06:44:42;;;;;;;9.03;2.10;;;;;;;8.00;81.70;101459.22;6193464;28;20233;-73
2022/10/10 06:48:04;;;;;;;2.73;1.40;;;;;;;7.97;81.81;101464.78;6188007;28;20762;-72
2022/10/10 06:51:26;;;;;;;4.97;2.63;;;;;;;8.00;82.06;101457.41;6205964;28;20996;-72
2022/10/10 06:54:47;;;;;;;5.73;2.03;;;;;;;8.23;80.51;101452.25;6186907;28;20799;-72
2022/10/10 06:58:08;;;;;;;3.27;2.17;;;;;;;8.29;80.75;101463.47;6197715;28;20666;-72
2022/10/10 07:01:29;;;;;;;4.30;2.10;;;;;;;8.38;79.98;101462.81;6188685;28;20581;-72
2022/10/10 07:04:50;;;;;;;2.23;1.93;;;;;;;8.47;80.29;101447.88;6193308;28;20229;-71
2022/10/10 07:08:12;;;;;;;3.83;2.13;;;;;;;8.44;80.29;101448.09;6195318;28;20624;-71
2022/10/10 07:11:33;;;;;;;3.83;2.07;;;;;;;8.51;78.89;101447.53;6205740;28;20240;-72
2022/10/10 07:14:54;;;;;;;7.63;2.27;;;;;;;8.47;79.15;101447.88;6195568;28;20268;-72
2022/10/10 07:18:17;;;;;;;2.73;2.53;;;;;;;8.83;78.44;101442.53;6201635;28;20241;-72
2022/10/10 07:21:38;;;;;;;2.93;1.87;;;;;;;8.68;78.97;101438.25;6187357;28;20233;-72
2022/10/10 07:25:00;;;;;;;5.87;2.80;;;;;;;8.83;78.01;101439.84;6168575;28;20225;-72
2022/10/10 07:28:21;;;;;;;4.13;2.50;;;;;;;9.02;77.68;101436.69;6196471;28;20225;-71
2022/10/10 07:31:42;;;;;;;4.20;3.10;;;;;;;8.90;77.36;101438.44;6197550;28;20276;-70
2022/10/10 07:35:03;;;;;;;5.47;4.17;;;;;;;8.90;77.40;101427.69;6186205;28;20987;-72
2022/10/10 07:38:25;;;;;;;4.23;2.93;;;;;;;8.90;77.25;101435.75;6181779;28;20989;-69
2022/10/10 07:41:47;;;;;;;3.53;2.57;;;;;;;8.93;77.90;101430.16;6189902;28;20312;-70
2022/10/10 07:45:10;;;;;;;4.20;2.60;;;;;;;9.03;77.35;101430.34;6194593;28;20237;-69
2022/10/10 07:48:32;;;;;;;3.13;2.40;;;;;;;9.15;77.38;101433.00;6192721;28;20221;-70
2022/10/10 07:51:53;;;;;;;3.97;2.70;;;;;;;9.22;76.94;101428.03;6191585;28;20245;-68
2022/10/10 07:55:14;;;;;;;3.43;1.83;;;;;;;9.12;77.16;101435.03;6224602;28;20674;-69
2022/10/10 07:58:37;;;;;;;2.13;1.70;;;;;;;9.25;76.95;101430.47;6199320;28;20237;-69
2022/10/10 08:01:57;;;;;;;2.23;2.03;;;;;;;9.34;76.93;101421.72;6197071;28;20228;-70
2022/10/10 08:05:18;;;;;;;7.10;2.50;;;;;;;9.54;76.09;101424.63;6193608;28;20257;-70
2022/10/10 08:08:40;;;;;;;4.07;2.43;;;;;;;9.68;75.53;101422.72;6191542;28;20317;-70
2022/10/10 08:12:01;;;;;;;6.73;1.97;;;;;;;9.72;75.54;101422.34;6192669;28;20245;-69
2022/10/10 08:15:24;;;;;;;1.97;1.80;;;;;;;9.85;75.57;101427.66;6202414;28;20230;-69
2022/10/10 08:18:45;;;;;;;5.33;2.43;;;;;;;10.01;74.74;101415.56;6198083;28;20241;-68
2022/10/10 08:22:06;;;;;;;2.83;2.30;;;;;;;10.17;74.36;101415.28;6192400;28;20503;-68
2022/10/10 08:25:27;;;;;;;2.67;1.90;;;;;;;10.30;73.29;101421.44;6200173;28;20233;-70
2022/10/10 08:28:48;;;;;;;3.87;2.97;;;;;;;10.11;74.01;101413.06;6185741;28;20226;-70
2022/10/10 08:32:10;;;;;;;3.77;1.73;;;;;;;10.21;74.19;101412.22;6169771;28;20333;-70
2022/10/10 08:35:31;;;;;;;2.13;1.90;;;;;;;10.26;74.42;101406.47;6175785;28;20236;-71
2022/10/10 08:38:56;;;;;;;1.87;1.77;;;;;;;10.66;73.89;101404.16;6189577;28;20614;-69
2022/10/10 08:42:24;;;;;;;2.77;2.57;;;;;;;10.59;73.35;101401.09;6195346;28;20502;-69
2022/10/10 08:45:45;;;;;;;4.27;1.20;;;;;;;10.64;72.87;101392.63;6193933;28;20315;-68
2022/10/10 08:49:19;;;;;;;2.60;1.97;;;;;;;10.81;72.47;101387.56;6193494;28;20233;-69
2022/10/10 08:52:43;;;;;;;1.93;1.80;;;;;;;11.18;71.87;101383.56;6201296;28;20248;-70
2022/10/10 08:56:06;;;;;;;2.23;2.03;;;;;;;11.14;71.24;101376.69;6206256;28;20234;-70
2022/10/10 08:59:33;;;;;;;1.83;1.73;;;;;;;11.25;71.26;101381.22;6194219;28;20260;-70
2022/10/10 09:02:56;;;;;;;3.13;1.87;;;;;;;11.76;69.88;101374.16;6194241;28;20237;-70
2022/10/10 09:06:29;;;;;;;26.43;2.50;;;;;;;12.02;69.27;101372.72;6200794;28;20218;-70
2022/10/10 09:09:58;;;;;;;1.60;1.30;;;;;;;12.17;68.60;101366.97;6194257;28;20232;-69
2022/10/10 09:13:30;;;;;;;2.20;1.30;;;;;;;12.67;67.31;101358.81;6175651;28;20237;-69
2022/10/10 09:16:56;;;;;;;2.30;1.60;;;;;;;12.60;66.74;101354.94;6178920;28;20228;-70
2022/10/10 09:20:26;;;;;;;5.47;1.63;;;;;;;13.11;65.68;101349.38;6189486;28;20320;-69
2022/10/10 09:23:53;;;;;;;1.97;1.70;;;;;;;13.28;64.78;101362.22;6182365;28;20222;-69
2022/10/10 09:27:18;;;;;;;1.70;1.33;;;;;;;13.39;65.05;101363.94;6180244;28;20500;-70
2022/10/10 09:30:44;;;;;;;2.97;1.97;;;;;;;13.56;64.35;101349.66;6195308;28;20315;-70
2022/10/10 09:34:12;;;;;;;3.40;1.27;;;;;;;14.30;62.35;101342.53;6193575;28;20241;-70
2022/10/10 09:37:38;;;;;;;2.23;1.73;;;;;;;14.70;61.29;101337.66;6195099;28;20248;-69
2022/10/10 09:41:05;;;;;;;2.47;1.73;;;;;;;16.62;57.20;101329.44;6199452;28;20248;-70
2022/10/10 09:44:27;;;;;;;2.10;2.00;;;;;;;19.56;47.46;101324.81;6184146;28;20226;-70
2022/10/10 09:47:51;;;;;;;46.73;3.10;;;;;;;21.67;42.28;101316.56;6191322;28;20248;-70
2022/10/10 09:51:15;;;;;;;3.38;1.27;;;;;;;23.76;37.42;101306.63;6196198;28;20572;-69
2022/10/10 09:54:36;;;;;;;1.95;1.52;;;;;;;27.25;32.37;101320.69;6195793;28;20233;-69
2022/10/10 09:58:04;;;;;;;1.70;1.58;;;;;;;25.16;34.22;101317.97;6194930;28;20228;-70
2022/10/10 10:01:27;;;;;;;1.65;1.20;;;;;;;25.66;33.34;101324.50;6199365;28;20252;-70
2022/10/10 10:04:49;;;;;;;1.65;1.40;;;;;;;22.85;38.85;101329.25;6192518;28;20618;-69
2022/10/10 10:08:20;;;;;;;2.42;0.95;;;;;;;25.96;33.75;101320.00;6189131;28;20533;-70
2022/10/10 10:11:41;;;;;;;2.55;1.48;;;;;;;26.08;33.03;101315.44;6189062;28;20252;-70
2022/10/10 10:15:06;;;;;;;2.28;1.50;;;;;;;28.86;28.34;101322.84;6184162;28;20316;-71
2022/10/10 10:18:28;;;;;;;2.22;1.48;;;;;;;27.52;30.22;101314.56;6165120;28;20710;-69
2022/10/10 10:21:51;;;;;;;1.00;0.90;;;;;;;27.78;30.51;101307.78;6196871;28;20245;-70
2022/10/10 10:25:30;;;;;;;1.50;1.40;;;;;;;28.06;30.61;101296.03;6180868;28;20245;-70
2022/10/10 10:28:52;;;;;;;2.28;1.30;;;;;;;28.94;28.52;101297.47;6191339;28;20234;-70
2022/10/10 10:32:23;;;;;;;1.70;1.20;;;;;;;27.26;31.22;101294.69;6202889;28;20661;-70
2022/10/10 10:35:50;;;;;;;2.00;1.55;;;;;;;27.78;30.20;101287.50;6201838;28;20216;-70
2022/10/10 10:39:25;;;;;;;2.03;1.20;;;;;;;28.45;28.90;101292.50;6212347;28;20233;-69
2022/10/10 10:43:13;;;;;;;3.53;1.83;;;;;;;29.28;27.90;101284.56;6192513;28;20344;-71
2022/10/10 10:46:47;;;;;;;2.63;1.20;;;;;;;26.85;30.36;101289.94;6158663;28;20253;-70
2022/10/10 10:50:25;;;;;;;1.98;1.40;;;;;;;28.95;28.17;101287.22;6184820;28;20631;-71
2022/10/10 10:53:55;;;;;;;1.88;1.00;;;;;;;31.52;24.88;101287.34;6189409;28;20328;-70
2022/10/10 10:57:26;;;;;;;3.60;2.08;;;;;;;32.04;23.79;101281.16;6215355;28;20241;-70
2022/10/10 11:00:54;;;;;;;1.45;1.00;;;;;;;33.15;23.35;101277.00;6209647;28;20229;-71
2022/10/10 11:04:35;;;;;;;1.33;1.30;;;;;;;26.13;32.37;101286.06;6211788;28;20412;-70
2022/10/10 11:08:09;;;;;;;2.42;1.30;;;;;;;27.75;29.41;101276.88;6210762;28;20232;-70
2022/10/10 11:11:41;;;;;;;2.78;1.40;;;;;;;29.12;28.32;101282.56;6205989;28;20260;-70
2022/10/10 11:15:09;;;;;;;2.15;0.80;;;;;;;29.19;27.56;101283.28;6209766;28;20323;-70
2022/10/10 11:18:34;;;;;;;3.75;0.98;;;;;;;27.11;30.23;101266.59;6210200;28;20237;-70
2022/10/10 11:22:01;;;;;;;2.40;1.20;;;;;;;22.28;38.23;101281.97;6210496;28;20484;-70
2022/10/10 11:25:29;;;;;;;2.75;1.20;;;;;;;28.30;30.00;101261.63;6212182;28;20236;-71
2022/10/10 11:28:56;;;;;;;1.90;1.20;;;;;;;26.28;30.80;101268.25;6214014;28;20233;-71
2022/10/10 11:32:24;;;;;;;5.82;1.23;;;;;;;23.56;35.83;101267.22;6203184;28;20238;-70
2022/10/10 11:35:50;;;;;;;2.40;1.20;;;;;;;21.59;39.77;101270.03;6192804;28;20226;-70
2022/10/10 11:39:15;;;;;;;1.77;1.38;;;;;;;21.10;42.26;101275.47;6211225;28;20314;-71
2022/10/10 11:42:45;;;;;;;3.53;1.70;;;;;;;21.68;41.50;101257.88;6197069;28;20235;-70
2022/10/10 11:46:16;;;;;;;2.40;1.63;;;;;;;24.96;35.40;101245.50;6187091;28;20237;-71
2022/10/10 11:49:46;;;;;;;3.78;1.63;;;;;;;25.35;35.10;101243.31;6181253;28;20686;-70
2022/10/10 11:53:15;;;;;;;3.30;1.23;;;;;;;25.08;34.89;101246.47;6182229;28;20226;-69
2022/10/10 11:56:41;;;;;;;4.47;1.95;;;;;;;24.58;35.22;101251.81;6211006;28;20225;-69
2022/10/10 12:00:06;;;;;;;2.25;1.27;;;;;;;22.94;39.26;101247.41;6206435;28;20237;-69
2022/10/10 12:03:27;;;;;;;1.35;1.20;;;;;;;21.80;40.47;101259.00;6215180;28;20249;-70
2022/10/10 12:06:53;;;;;;;3.00;1.38;;;;;;;23.68;37.69;101251.75;6217496;28;20236;-69
2022/10/10 12:10:19;;;;;;;4.65;1.90;;;;;;;23.91;37.18;101251.31;6213338;28;20315;-69
2022/10/10 12:13:42;;;;;;;3.83;2.45;;;;;;;22.69;39.93;101241.63;6203719;28;20245;-70
2022/10/10 12:17:05;;;;;;;3.90;1.27;;;;;;;24.35;36.49;101240.44;6198748;28;20864;-70
2022/10/10 12:20:34;;;;;;;3.55;1.77;;;;;;;20.20;45.77;101252.19;6205329;28;20233;-70
2022/10/10 12:24:03;;;;;;;4.57;1.30;;;;;;;19.08;49.57;101248.59;6198088;28;20241;-71
2022/10/10 12:27:41;;;;;;;2.03;1.20;;;;;;;18.56;51.67;101258.50;6195743;28;20229;-69
2022/10/10 12:31:33;;;;;;;3.53;1.80;;;;;;;19.17;50.30;101252.94;6187139;28;20230;-70
2022/10/10 12:35:00;;;;;;;4.20;2.40;;;;;;;18.21;53.05;101252.44;6159464;28;20242;-70
2022/10/10 12:38:23;;;;;;;3.53;1.98;;;;;;;18.30;52.98;101247.81;6210609;28;20233;-70
2022/10/10 12:41:54;;;;;;;1.98;1.33;;;;;;;18.98;51.80;101239.78;6201808;28;20237;-69
2022/10/10 12:45:49;;;;;;;1.77;1.58;;;;;;;20.31;48.01;101239.91;6196988;28;20225;-70
2022/10/10 12:49:19;;;;;;;2.55;1.50;;;;;;;20.10;49.04;101232.44;6190534;28;20627;-69
2022/10/10 12:52:49;;;;;;;2.10;1.77;;;;;;;19.84;49.14;101237.50;6205156;28;20233;-68
2022/10/10 12:56:13;;;;;;;1.83;1.55;;;;;;;19.36;51.02;101238.00;6198268;28;20228;-68
2022/10/10 12:59:36;;;;;;;6.30;1.75;;;;;;;18.87;52.90;101243.78;6210119;28;20233;-70
2022/10/10 13:03:00;;;;;;;1.77;1.63;;;;;;;19.07;52.21;101250.47;6195757;28;20760;-69
2022/10/10 13:06:28;;;;;;;2.47;1.90;;;;;;;17.66;56.38;101261.63;6195459;28;20225;-70
2022/10/10 13:09:53;;;;;;;6.30;2.58;;;;;;;18.41;55.13;101255.63;6195326;28;20233;-69
2022/10/10 13:13:17;;;;;;;3.25;1.48;;;;;;;18.89;52.90;101260.00;6198901;28;20237;-70
2022/10/10 13:16:43;;;;;;;3.95;1.52;;;;;;;19.69;50.73;101247.59;6182422;28;20381;-69
2022/10/10 13:20:07;;;;;;;2.95;2.25;;;;;;;21.05;46.67;101266.16;6194833;28;20472;-70
2022/10/10 13:23:29;;;;;;;2.40;2.08;;;;;;;18.31;53.58;101258.53;6197274;28;20610;-70
2022/10/10 13:26:52;;;;;;;3.55;2.17;;;;;;;18.95;50.97;101249.19;6171520;28;20622;-69
2022/10/10 13:30:19;;;;;;;2.50;1.70;;;;;;;19.43;49.53;101258.09;6182416;28;20234;-69
2022/10/10 13:33:41;;;;;;;1.65;1.52;;;;;;;20.34;47.76;101242.28;6198619;28;20236;-69
2022/10/10 13:37:03;;;;;;;3.03;1.10;;;;;;;19.81;49.07;101235.16;6201294;28;20756;-69
2022/10/10 13:40:25;;;;;;;2.55;1.73;;;;;;;19.31;51.40;101245.84;6183093;28;20245;-69
2022/10/10 13:43:48;;;;;;;4.15;1.75;;;;;;;19.30;51.23;101242.25;6179432;28;20225;-70
2022/10/10 13:47:46;;;;;;;1.85;1.70;;;;;;;19.95;49.09;101239.78;6184527;28;22018;-68
2022/10/10 13:51:09;;;;;;;2.78;2.58;;;;;;;20.67;47.27;101257.25;6198275;28;20225;-69
2022/10/10 13:54:42;;;;;;;2.22;1.48;;;;;;;18.95;51.00;101246.47;6193046;28;20261;-68
2022/10/10 13:58:08;;;;;;;4.15;2.20;;;;;;;18.50;52.30;101257.34;6199356;28;20225;-70
2022/10/10 14:01:35;;;;;;;1.92;1.75;;;;;;;18.03;54.44;101260.03;6204679;28;21059;-69
2022/10/10 14:04:56;;;;;;;3.35;1.92;;;;;;;18.16;54.48;101257.59;6208264;28;20576;-69
2022/10/10 14:08:20;;;;;;;1.95;1.70;;;;;;;17.64;55.15;101266.41;6209180;28;20233;-70
2022/10/10 14:11:42;;;;;;;2.63;1.75;;;;;;;18.20;54.19;101255.38;6203712;28;20574;-70
2022/10/10 14:15:05;;;;;;;10.55;1.83;;;;;;;17.60;54.67;101259.59;6208658;28;20237;-69
2022/10/10 14:18:27;;;;;;;2.40;1.42;;;;;;;17.61;55.09;101264.03;6208500;28;20536;-69
2022/10/10 14:21:48;;;;;;;8.40;2.50;;;;;;;17.68;54.81;101259.59;6201838;28;20233;-69
2022/10/10 14:25:10;;;;;;;22.65;2.05;;;;;;;17.86;54.30;101258.34;6205864;28;20239;-69
2022/10/10 14:28:33;;;;;;;2.90;1.23;;;;;;;17.75;54.47;101261.47;6207695;28;20221;-69
2022/10/10 14:31:54;;;;;;;2.88;1.90;;;;;;;17.79;54.88;101268.28;6205402;28;20240;-69
2022/10/10 14:35:16;;;;;;;6.75;2.35;;;;;;;17.46;55.82;101267.41;6194807;28;20237;-69
2022/10/10 14:38:37;;;;;;;4.00;1.80;;;;;;;17.57;55.51;101255.34;6204141;28;20233;-69
2022/10/10 14:42:01;;;;;;;3.85;2.80;;;;;;;17.58;55.59;101263.34;6197061;28;20236;-70
2022/10/10 14:45:21;;;;;;;3.88;2.25;;;;;;;17.27;56.66;101259.56;6180834;28;20538;-70
2022/10/10 14:48:43;;;;;;;2.80;1.98;;;;;;;17.31;56.65;101265.56;6169983;28;20266;-69
2022/10/10 14:52:07;;;;;;;3.72;2.35;;;;;;;17.11;56.77;101275.06;6158518;28;21088;-68
2022/10/10 14:55:28;;;;;;;4.10;2.55;;;;;;;16.89;57.15;101271.13;6162196;28;20230;-69
2022/10/10 14:58:49;;;;;;;3.35;1.63;;;;;;;16.90;57.57;101267.38;6180784;28;20689;-69
2022/10/10 15:02:10;;;;;;;2.50;1.97;;;;;;;16.95;57.31;101265.00;6182039;28;20608;-69
2022/10/10 15:05:30;;;;;;;3.73;1.90;;;;;;;17.01;57.51;101260.75;6202140;28;20533;-69
2022/10/10 15:08:53;;;;;;;2.67;1.50;;;;;;;16.94;57.61;101270.63;6186986;28;20495;-70
2022/10/10 15:12:14;;;;;;;2.77;1.67;;;;;;;16.73;58.06;101265.63;6204975;28;20529;-69
2022/10/10 15:15:34;;;;;;;1.73;1.37;;;;;;;16.66;58.22;101264.59;6182135;28;20250;-69
2022/10/10 15:18:55;;;;;;;1.73;1.40;;;;;;;16.68;58.35;101268.00;6187415;28;20221;-69
2022/10/10 15:22:16;;;;;;;3.17;1.63;;;;;;;16.66;58.56;101261.88;6207583;28;20222;-69
2022/10/10 15:25:42;;;;;;;2.30;1.47;;;;;;;16.68;58.71;101247.09;6199148;28;20233;-69
2022/10/10 15:29:02;;;;;;;2.87;1.93;;;;;;;16.68;58.63;101259.84;6204531;28;20257;-68
2022/10/10 15:32:24;;;;;;;4.40;1.70;;;;;;;16.74;58.89;101267.34;6210829;28;20614;-69
2022/10/10 15:35:45;;;;;;;1.57;1.47;;;;;;;16.71;59.13;101268.50;6200622;28;20225;-70
2022/10/10 15:39:06;;;;;;;1.77;1.23;;;;;;;16.57;59.48;101266.44;6201723;28;20225;-68
2022/10/10 15:42:28;;;;;;;2.27;1.30;;;;;;;16.51;59.64;101278.00;6210430;28;20465;-69
2022/10/10 15:45:49;;;;;;;3.23;1.50;;;;;;;16.55;59.45;101281.22;6211521;28;20244;-69
2022/10/10 15:49:11;;;;;;;3.33;2.37;;;;;;;16.48;60.42;101281.00;6198072;28;20233;-71
2022/10/10 15:52:32;;;;;;;1.80;1.70;;;;;;;16.48;60.07;101291.88;6197810;28;20260;-69
2022/10/10 15:55:53;;;;;;;25.73;2.97;;;;;;;16.50;59.89;101279.00;6198860;28;20555;-69